createdAt,value
2022-10-29T00:00:32.190Z,94.79
2022-10-29T00:02:49.235Z,94.68
2022-10-29T00:05:06.329Z,94.45
2022-10-29T00:07:23.338Z,95.06
2022-10-29T00:09:40.555Z,95.25
2022-10-29T00:11:57.778Z,94.71
2022-10-29T00:14:15.089Z,95.40
2022-10-29T00:16:32.059Z,95.14
2022-10-29T00:18:50.158Z,95.61
2022-10-29T00:21:09.501Z,95.48
2022-10-29T00:23:26.538Z,95.01
2022-10-29T00:25:45.693Z,94.93
2022-10-29T00:28:04.044Z,95.02
2022-10-29T00:30:23.048Z,95.64
2022-10-29T00:32:40.290Z,94.73
2022-10-29T00:34:57.495Z,95.26
2022-10-29T00:37:14.924Z,94.68
2022-10-29T00:39:31.960Z,95.19
2022-10-29T00:41:49.162Z,95.17
2022-10-29T00:44:06.955Z,94.97
2022-10-29T00:46:24.203Z,95.23
2022-10-29T00:48:41.433Z,95.61
2022-10-29T00:50:59.451Z,95.19
2022-10-29T00:53:16.493Z,95.32
2022-10-29T00:55:33.722Z,95.08
2022-10-29T00:57:50.663Z,95.00
2022-10-29T01:00:07.628Z,95.10
2022-10-29T01:02:24.687Z,94.67
2022-10-29T01:04:43.171Z,94.77
2022-10-29T01:07:00.120Z,94.97
2022-10-29T01:09:17.169Z,94.92
2022-10-29T01:11:34.092Z,95.22
2022-10-29T01:13:51.121Z,95.31
2022-10-29T01:16:08.269Z,95.29
2022-10-29T01:18:25.824Z,95.19
2022-10-29T01:20:42.844Z,95.02
2022-10-29T01:22:59.863Z,95.11
2022-10-29T01:25:16.894Z,94.73
2022-10-29T01:27:33.864Z,94.72
2022-10-29T01:29:50.790Z,94.71
2022-10-29T01:32:10.207Z,94.48
2022-10-29T01:34:27.454Z,94.58
2022-10-29T01:36:45.939Z,94.94
2022-10-29T01:39:03.150Z,94.87
2022-10-29T01:41:22.563Z,94.87
2022-10-29T01:43:39.763Z,94.49
2022-10-29T01:45:58.126Z,94.70
2022-10-29T01:48:15.174Z,94.81
2022-10-29T01:50:34.232Z,94.69
2022-10-29T01:52:51.575Z,94.96
2022-10-29T01:55:09.879Z,95.00
2022-10-29T01:57:26.923Z,94.37
2022-10-29T01:59:55.423Z,94.89
2022-10-29T02:02:13.276Z,95.21
2022-10-29T02:04:30.465Z,94.74
2022-10-29T02:06:47.763Z,94.76
2022-10-29T02:09:04.755Z,94.75
2022-10-29T02:11:21.689Z,94.60
2022-10-29T02:13:38.810Z,94.86
2022-10-29T02:15:55.689Z,95.04
2022-10-29T02:18:12.878Z,94.47
2022-10-29T02:20:29.933Z,94.68
2022-10-29T02:22:47.220Z,94.44
2022-10-29T02:25:04.283Z,95.09
2022-10-29T02:27:21.308Z,94.96
2022-10-29T02:29:38.182Z,95.91
2022-10-29T02:31:55.450Z,94.99
2022-10-29T02:34:12.831Z,95.59
2022-10-29T02:36:30.117Z,95.45
2022-10-29T02:38:48.081Z,95.40
2022-10-29T02:41:05.446Z,95.27
2022-10-29T02:43:23.429Z,95.43
2022-10-29T02:45:40.407Z,95.35
2022-10-29T02:47:58.162Z,95.29
2022-10-29T02:50:15.681Z,95.31
2022-10-29T02:52:32.888Z,95.75
2022-10-29T02:54:50.207Z,95.83
2022-10-29T02:57:07.099Z,95.99
2022-10-29T02:59:24.586Z,95.36
2022-10-29T03:01:41.989Z,95.76
2022-10-29T03:03:59.281Z,95.88
2022-10-29T03:06:16.535Z,95.81
2022-10-29T03:08:33.773Z,95.79
2022-10-29T03:10:52.977Z,95.83
2022-10-29T03:13:09.991Z,95.90
2022-10-29T03:15:27.194Z,96.00
2022-10-29T03:17:44.465Z,95.45
2022-10-29T03:20:01.668Z,96.11
2022-10-29T03:22:18.655Z,96.16
2022-10-29T03:24:35.590Z,96.23
2022-10-29T03:26:52.631Z,95.89
2022-10-29T03:29:09.894Z,95.92
2022-10-29T03:31:27.804Z,96.29
2022-10-29T03:33:44.834Z,96.04
2022-10-29T03:36:02.218Z,96.21
2022-10-29T03:38:20.534Z,95.99
2022-10-29T03:40:37.586Z,96.01
2022-10-29T03:42:56.219Z,95.96
2022-10-29T03:45:13.691Z,96.15
2022-10-29T03:47:30.669Z,96.15
2022-10-29T03:49:48.664Z,96.17
2022-10-29T03:52:06.250Z,96.16
2022-10-29T03:54:25.083Z,96.43
2022-10-29T03:56:42.277Z,96.33
2022-10-29T03:58:59.380Z,96.30
2022-10-29T04:01:16.515Z,96.13
2022-10-29T04:03:33.856Z,95.79
2022-10-29T04:05:50.912Z,96.00
2022-10-29T04:08:08.146Z,96.39
2022-10-29T04:10:25.134Z,95.85
2022-10-29T04:12:42.381Z,96.08
2022-10-29T04:15:00.614Z,95.90
2022-10-29T04:17:17.893Z,96.51
2022-10-29T04:19:37.577Z,96.47
2022-10-29T04:29:47.135Z,97.22
2022-10-29T04:32:04.452Z,96.74
2022-10-29T04:34:21.402Z,96.83
2022-10-29T04:36:38.688Z,96.77
2022-10-29T04:38:55.999Z,96.55
2022-10-29T04:41:13.011Z,96.76
2022-10-29T04:43:29.976Z,96.55
2022-10-29T04:45:47.015Z,96.74
2022-10-29T04:48:03.944Z,96.75
2022-10-29T04:50:21.151Z,96.76
2022-10-29T04:52:38.406Z,96.76
2022-10-29T04:54:56.587Z,96.85
2022-10-29T04:57:13.820Z,96.76
2022-10-29T04:59:31.098Z,96.89
2022-10-29T05:01:48.048Z,96.70
2022-10-29T05:04:07.432Z,97.21
2022-10-29T05:06:24.437Z,96.85
2022-10-29T05:08:42.649Z,96.91
2022-10-29T05:10:59.512Z,96.73
2022-10-29T05:13:16.521Z,96.80
2022-10-29T05:15:33.503Z,96.71
2022-10-29T05:17:50.800Z,96.71
2022-10-29T05:20:07.858Z,96.47
2022-10-29T05:22:25.077Z,96.66
2022-10-29T05:24:43.116Z,96.46
2022-10-29T05:27:00.339Z,96.78
2022-10-29T05:29:18.675Z,96.79
2022-10-29T05:31:35.665Z,96.87
2022-10-29T05:33:55.630Z,96.63
2022-10-29T05:36:15.708Z,96.86
2022-10-29T05:38:32.595Z,96.94
2022-10-29T05:40:49.611Z,97.14
2022-10-29T05:43:06.598Z,96.85
2022-10-29T05:45:23.638Z,96.89
2022-10-29T05:47:40.531Z,97.05
2022-10-29T05:49:58.821Z,96.89
2022-10-29T05:52:16.804Z,97.68
2022-10-29T05:54:33.995Z,97.14
2022-10-29T05:56:52.088Z,97.59
2022-10-29T05:59:09.303Z,97.44
2022-10-29T06:01:26.660Z,97.41
2022-10-29T06:03:43.818Z,96.85
2022-10-29T06:06:01.190Z,96.90
2022-10-29T06:08:18.293Z,96.97
2022-10-29T06:10:35.493Z,97.28
2022-10-29T06:12:53.735Z,97.11
2022-10-29T06:15:10.957Z,97.16
2022-10-29T06:17:28.293Z,97.02
2022-10-29T06:19:45.316Z,97.24
2022-10-29T06:22:02.293Z,97.40
2022-10-29T06:24:19.229Z,97.02
2022-10-29T06:26:36.230Z,97.21
2022-10-29T06:28:53.271Z,97.42
2022-10-29T06:31:10.655Z,97.19
2022-10-29T06:33:27.611Z,97.04
2022-10-29T06:35:44.902Z,96.97
2022-10-29T06:38:04.076Z,97.03
2022-10-29T06:40:24.317Z,97.18
2022-10-29T06:42:42.455Z,97.24
2022-10-29T06:45:00.189Z,97.11
2022-10-29T06:47:17.451Z,97.29
2022-10-29T06:49:34.387Z,97.08
2022-10-29T06:51:51.460Z,97.10
2022-10-29T06:54:09.441Z,97.14
2022-10-29T06:56:26.467Z,97.70
2022-10-29T06:58:43.441Z,97.66
2022-10-29T07:01:00.503Z,97.39
2022-10-29T07:03:17.574Z,96.87
2022-10-29T07:05:34.815Z,97.07
2022-10-29T07:07:51.907Z,98.04
2022-10-29T07:10:08.879Z,97.66
2022-10-29T07:12:25.894Z,97.33
2022-10-29T07:14:42.921Z,98.03
2022-10-29T07:17:00.037Z,97.56
2022-10-29T07:19:17.277Z,98.06
2022-10-29T07:21:35.465Z,97.30
2022-10-29T07:23:52.439Z,97.58
2022-10-29T07:26:09.412Z,97.45
2022-10-29T07:28:27.934Z,98.25
2022-10-29T07:30:45.934Z,97.19
2022-10-29T07:33:02.948Z,98.55
2022-10-29T07:35:20.318Z,97.57
2022-10-29T07:37:37.625Z,98.70
2022-10-29T07:39:56.052Z,98.77
2022-10-29T07:42:12.986Z,98.56
2022-10-29T07:44:29.969Z,98.07
2022-10-29T07:46:47.283Z,98.58
2022-10-29T07:49:04.308Z,99.01
2022-10-29T07:51:21.526Z,98.29
2022-10-29T07:53:39.549Z,97.84
2022-10-29T07:55:56.555Z,98.92
2022-10-29T07:58:13.590Z,98.57
2022-10-29T08:00:30.973Z,97.01
2022-10-29T08:02:51.112Z,97.66
2022-10-29T08:05:08.142Z,96.80
2022-10-29T08:07:25.403Z,97.82
2022-10-29T08:09:42.264Z,97.47
2022-10-29T08:11:59.296Z,97.55
2022-10-29T08:14:18.896Z,98.17
2022-10-29T08:16:37.246Z,98.00
2022-10-29T08:18:55.263Z,98.18
2022-10-29T08:21:12.534Z,98.22
2022-10-29T08:23:29.585Z,98.69
2022-10-29T08:25:46.831Z,97.52
2022-10-29T08:28:04.111Z,98.42
2022-10-29T08:30:21.056Z,97.16
2022-10-29T08:32:38.103Z,98.63
2022-10-29T08:34:55.156Z,97.44
2022-10-29T08:37:12.355Z,96.67
2022-10-29T08:39:29.389Z,97.05
2022-10-29T08:41:46.364Z,96.87
2022-10-29T08:46:25.178Z,96.70
2022-10-29T08:48:42.238Z,96.35
2022-10-29T08:50:59.287Z,96.66
2022-10-29T08:53:23.426Z,96.14
2022-10-29T08:55:41.261Z,97.43
2022-10-29T08:57:58.591Z,95.93
2022-10-29T09:00:17.181Z,96.71
2022-10-29T09:02:34.266Z,97.48
2022-10-29T09:04:51.208Z,95.81
2022-10-29T09:07:08.628Z,97.30
2022-10-29T09:09:25.616Z,95.75
2022-10-29T09:11:42.620Z,96.92
2022-10-29T09:14:00.154Z,96.68
2022-10-29T09:16:18.002Z,97.30
2022-10-29T09:18:35.241Z,95.99
2022-10-29T09:20:53.152Z,95.29
2022-10-29T09:23:10.401Z,95.42
2022-10-29T09:25:27.362Z,94.95
2022-10-29T09:27:45.625Z,95.26
2022-10-29T09:30:02.859Z,95.24
2022-10-29T09:32:20.815Z,94.39
2022-10-29T09:34:37.858Z,94.02
2022-10-29T09:36:55.851Z,93.29
2022-10-29T09:39:13.098Z,92.45
2022-10-29T09:41:30.398Z,93.21
2022-10-29T09:43:48.398Z,93.29
2022-10-29T09:46:05.746Z,92.83
2022-10-29T09:48:22.998Z,92.55
2022-10-29T09:50:42.438Z,92.37
2022-10-29T09:52:59.703Z,91.85
2022-10-29T09:55:17.697Z,92.76
2022-10-29T09:57:34.716Z,91.61
2022-10-29T09:59:51.752Z,90.94
2022-10-29T10:02:08.921Z,90.90
2022-10-29T10:04:26.333Z,90.73
2022-10-29T10:06:43.216Z,90.03
2022-10-29T10:09:00.256Z,89.89
2022-10-29T10:11:17.237Z,88.68
2022-10-29T10:13:34.262Z,88.79
2022-10-29T10:15:51.297Z,88.17
2022-10-29T10:18:08.281Z,87.73
2022-10-29T10:20:25.794Z,89.43
2022-10-29T10:22:43.034Z,89.10
2022-10-29T10:25:01.072Z,89.69
2022-10-29T10:27:18.377Z,88.60
2022-10-29T10:29:35.615Z,87.82
2022-10-29T10:31:52.650Z,88.21
2022-10-29T10:34:09.617Z,87.86
2022-10-29T10:36:26.850Z,87.69
2022-10-29T10:38:44.233Z,88.91
2022-10-29T10:41:01.312Z,88.39
2022-10-29T10:43:19.306Z,89.21
2022-10-29T10:45:36.364Z,87.73
2022-10-29T10:47:53.414Z,89.34
2022-10-29T10:50:10.439Z,90.47
2022-10-29T10:52:27.677Z,90.24
2022-10-29T10:54:44.830Z,89.04
2022-10-29T10:57:01.863Z,90.72
2022-10-29T10:59:18.903Z,89.35
2022-10-29T11:01:36.059Z,90.57
2022-10-29T11:03:53.149Z,89.55
2022-10-29T11:06:10.193Z,90.76
2022-10-29T11:08:27.147Z,92.08
2022-10-29T11:10:44.174Z,91.75
2022-10-29T11:13:01.454Z,92.04
2022-10-29T11:15:18.632Z,91.72
2022-10-29T11:17:35.867Z,91.06
2022-10-29T11:19:52.903Z,91.20
2022-10-29T11:22:09.885Z,91.07
2022-10-29T11:24:26.874Z,90.96
2022-10-29T11:26:44.909Z,91.20
2022-10-29T11:29:01.917Z,89.63
2022-10-29T11:31:20.251Z,89.92
2022-10-29T11:33:37.482Z,90.36
2022-10-29T11:35:57.519Z,90.99
2022-10-29T11:38:18.303Z,91.14
2022-10-29T11:40:35.332Z,89.63
2022-10-29T11:42:52.642Z,89.28
2022-10-29T11:45:09.668Z,89.46
2022-10-29T11:47:27.839Z,88.84
2022-10-29T11:49:45.091Z,88.68
2022-10-29T11:52:02.991Z,87.03
2022-10-29T11:54:20.188Z,86.78
2022-10-29T11:56:38.237Z,86.05
2022-10-29T11:58:55.456Z,86.45
2022-10-29T12:01:12.418Z,85.66
2022-10-29T12:03:29.742Z,87.06
2022-10-29T12:05:47.137Z,85.56
2022-10-29T12:08:04.390Z,85.77
2022-10-29T12:10:22.605Z,84.34
2022-10-29T12:12:39.656Z,84.04
2022-10-29T12:14:56.880Z,85.33
2022-10-29T12:17:14.051Z,83.04
2022-10-29T12:19:32.588Z,83.58
2022-10-29T12:21:49.824Z,84.05
2022-10-29T12:24:07.721Z,83.65
2022-10-29T12:26:24.955Z,81.72
2022-10-29T12:28:41.941Z,81.56
2022-10-29T12:30:59.259Z,83.12
2022-10-29T12:33:16.523Z,81.88
2022-10-29T12:35:34.560Z,81.28
2022-10-29T12:37:51.860Z,82.52
2022-10-29T12:40:08.881Z,81.39
2022-10-29T12:42:26.172Z,81.93
2022-10-29T12:44:45.189Z,81.52
2022-10-29T12:47:02.824Z,81.44
2022-10-29T12:49:20.202Z,81.02
2022-10-29T12:51:37.419Z,80.46
2022-10-29T12:53:54.844Z,80.13
2022-10-29T12:56:14.600Z,79.05
2022-10-29T12:58:33.150Z,79.54
2022-10-29T13:00:50.107Z,79.02
2022-10-29T13:03:07.241Z,78.44
2022-10-29T13:05:24.353Z,78.70
2022-10-29T13:07:41.265Z,77.90
2022-10-29T13:09:59.248Z,77.56
2022-10-29T13:12:24.068Z,77.56
2022-10-29T13:14:41.297Z,76.81
2022-10-29T13:16:58.338Z,76.84
2022-10-29T13:19:15.346Z,76.94
2022-10-29T13:21:33.376Z,77.12
2022-10-29T13:23:50.286Z,77.62
2022-10-29T13:26:07.523Z,78.21
2022-10-29T13:28:26.603Z,78.35
2022-10-29T13:30:43.629Z,78.51
2022-10-29T13:33:00.889Z,78.16
2022-10-29T13:35:18.395Z,78.20
2022-10-29T13:37:35.433Z,78.11
2022-10-29T13:39:52.751Z,78.64
2022-10-29T13:42:10.996Z,77.35
2022-10-29T13:44:28.068Z,77.59
2022-10-29T13:46:46.117Z,77.04
2022-10-29T13:49:03.422Z,76.55
2022-10-29T13:51:21.498Z,76.86
2022-10-29T13:53:38.559Z,76.16
2022-10-29T13:55:55.567Z,77.06
2022-10-29T13:58:13.489Z,76.41
2022-10-29T14:00:30.408Z,76.81
2022-10-29T14:02:48.447Z,76.50
2022-10-29T14:05:05.766Z,76.50
2022-10-29T14:07:23.773Z,76.96
2022-10-29T14:09:41.050Z,77.11
2022-10-29T14:11:58.398Z,76.87
2022-10-29T14:14:15.708Z,77.17
2022-10-29T14:16:33.689Z,76.92
2022-10-29T14:18:50.995Z,77.03
2022-10-29T14:21:08.237Z,76.92
2022-10-29T14:23:25.529Z,77.19
2022-10-29T14:25:42.787Z,77.87
2022-10-29T14:28:00.123Z,77.60
2022-10-29T14:30:18.550Z,77.64
2022-10-29T14:32:35.833Z,78.20
2022-10-29T14:34:53.130Z,78.67
2022-10-29T14:37:11.592Z,79.05
2022-10-29T14:39:32.533Z,80.22
2022-10-29T14:41:54.056Z,80.63
2022-10-29T14:44:12.369Z,81.26
2022-10-29T14:46:29.694Z,83.25
2022-10-29T14:48:46.786Z,83.73
2022-10-29T14:51:05.020Z,82.92
2022-10-29T14:53:22.040Z,83.66
2022-10-29T14:55:39.330Z,83.82
2022-10-29T14:57:56.646Z,84.34
2022-10-29T15:00:13.779Z,85.44
2022-10-29T15:02:38.092Z,84.74
2022-10-29T15:04:56.898Z,86.77
2022-10-29T15:07:13.919Z,86.37
2022-10-29T15:09:30.813Z,87.38
2022-10-29T15:11:47.913Z,86.23
2022-10-29T15:14:05.865Z,87.90
2022-10-29T15:16:22.898Z,88.21
2022-10-29T15:18:40.904Z,88.72
2022-10-29T15:20:58.135Z,87.81
2022-10-29T15:23:15.212Z,89.93
2022-10-29T15:25:32.705Z,90.32
2022-10-29T15:27:50.057Z,88.96
2022-10-29T15:30:07.394Z,89.76
2022-10-29T15:32:27.383Z,89.20
2022-10-29T15:34:47.484Z,89.40
2022-10-29T15:37:04.459Z,91.14
2022-10-29T15:39:21.944Z,89.70
2022-10-29T15:41:38.924Z,91.62
2022-10-29T15:43:56.252Z,91.73
2022-10-29T15:46:13.394Z,93.10
2022-10-29T15:48:33.837Z,91.12
2022-10-29T15:50:54.347Z,91.75
2022-10-29T15:53:11.412Z,91.09
2022-10-29T15:55:29.556Z,91.58
2022-10-29T15:57:46.468Z,93.42
2022-10-29T16:02:20.882Z,92.57
2022-10-29T16:04:38.385Z,92.01
2022-10-29T16:06:56.731Z,93.35
2022-10-29T16:09:14.008Z,92.21
2022-10-29T16:11:32.320Z,93.16
2022-10-29T16:13:54.593Z,93.14
2022-10-29T16:16:12.569Z,91.68
2022-10-29T16:18:29.509Z,92.35
2022-10-29T16:20:46.500Z,94.00
2022-10-29T16:23:04.619Z,93.62
2022-10-29T16:25:22.063Z,93.85
2022-10-29T16:27:39.382Z,94.25
2022-10-29T16:29:56.630Z,93.57
2022-10-29T16:32:13.891Z,93.22
2022-10-29T16:34:32.226Z,94.29
2022-10-29T16:36:49.400Z,93.38
2022-10-29T16:39:06.289Z,92.85
2022-10-29T16:41:23.693Z,93.89
2022-10-29T16:43:40.663Z,93.95
2022-10-29T16:46:01.125Z,93.40
2022-10-29T16:48:21.403Z,94.12
2022-10-29T16:50:39.297Z,93.46
2022-10-29T16:52:56.620Z,93.67
2022-10-29T16:55:13.669Z,94.48
2022-10-29T16:57:31.134Z,93.89
2022-10-29T16:59:48.868Z,93.64
2022-10-29T17:02:05.971Z,93.88
2022-10-29T17:04:23.077Z,94.17
2022-10-29T17:06:40.072Z,94.21
2022-10-29T17:08:57.659Z,94.22
2022-10-29T17:11:15.276Z,94.30
2022-10-29T17:13:32.289Z,93.63
2022-10-29T17:15:49.599Z,94.00
2022-10-29T17:18:06.774Z,94.09
2022-10-29T17:20:25.095Z,94.26
2022-10-29T17:22:42.411Z,94.09
2022-10-29T17:24:59.459Z,94.94
2022-10-29T17:27:16.746Z,94.45
2022-10-29T17:29:36.416Z,93.74
2022-10-29T17:31:54.923Z,94.45
2022-10-29T17:34:11.930Z,94.36
2022-10-29T17:36:28.998Z,93.66
2022-10-29T17:38:46.072Z,93.88
2022-10-29T17:41:03.344Z,94.06
2022-10-29T17:43:20.343Z,93.53
2022-10-29T17:45:37.289Z,93.62
2022-10-29T17:47:54.985Z,94.53
2022-10-29T17:50:12.260Z,94.94
2022-10-29T17:52:29.285Z,93.92
2022-10-29T17:54:46.317Z,94.77
2022-10-29T17:57:03.376Z,94.30
2022-10-29T17:59:21.438Z,95.07
2022-10-29T18:01:38.536Z,94.42
2022-10-29T18:03:56.975Z,94.76
2022-10-29T18:06:14.198Z,95.22
2022-10-29T18:08:32.307Z,93.50
2022-10-29T18:10:49.199Z,93.31
2022-10-29T18:13:06.156Z,93.47
2022-10-29T18:15:23.117Z,95.09
2022-10-29T18:17:41.447Z,93.56
2022-10-29T18:19:58.717Z,94.68
2022-10-29T18:22:15.694Z,94.98
2022-10-29T18:24:32.952Z,95.28
2022-10-29T18:26:50.267Z,93.82
2022-10-29T18:29:07.576Z,93.74
2022-10-29T18:34:06.780Z,94.79
2022-10-29T18:36:23.894Z,94.23
2022-10-29T18:38:40.953Z,95.12
2022-10-29T18:40:58.520Z,93.94
2022-10-29T18:43:15.526Z,94.76
2022-10-29T18:45:32.455Z,95.46
2022-10-29T18:47:49.479Z,93.93
2022-10-29T18:50:06.504Z,93.76
2022-10-29T18:52:23.742Z,94.08
2022-10-29T18:54:40.760Z,93.54
2022-10-29T18:56:58.241Z,94.16
2022-10-29T18:59:15.506Z,95.09
2022-10-29T19:01:32.637Z,95.13
2022-10-29T19:03:50.026Z,95.04
2022-10-29T19:06:06.994Z,93.52
2022-10-29T19:08:23.943Z,95.42
2022-10-29T19:10:41.278Z,95.58
2022-10-29T19:12:59.562Z,95.83
2022-10-29T19:15:16.535Z,95.06
2022-10-29T19:17:34.795Z,94.12
2022-10-29T19:19:52.169Z,95.44
2022-10-29T19:22:10.858Z,94.60
2022-10-29T19:24:28.044Z,94.78
2022-10-29T19:26:46.086Z,94.25
2022-10-29T19:29:04.164Z,94.04
2022-10-29T19:31:21.466Z,94.63
2022-10-29T19:33:39.444Z,96.17
2022-10-29T19:35:56.796Z,94.64
2022-10-29T19:38:14.005Z,94.62
2022-10-29T19:40:31.310Z,94.83
2022-10-29T19:42:48.338Z,94.44
2022-10-29T19:45:05.371Z,94.58
2022-10-29T19:47:22.701Z,95.80
2022-10-29T19:49:40.044Z,94.39
2022-10-29T19:51:58.473Z,94.98
2022-10-29T19:54:15.709Z,94.16
2022-10-29T19:56:33.006Z,94.49
2022-10-29T19:58:50.049Z,94.49
2022-10-29T20:01:07.074Z,94.11
2022-10-29T20:03:24.352Z,94.80
2022-10-29T20:05:41.387Z,94.80
2022-10-29T20:07:59.987Z,93.81
2022-10-29T20:10:17.177Z,94.55
2022-10-29T20:12:34.413Z,93.65
2022-10-29T20:14:51.298Z,94.05
2022-10-29T20:17:08.630Z,94.70
2022-10-29T20:19:25.546Z,95.00
2022-10-29T20:21:42.584Z,95.81
2022-10-29T20:23:59.724Z,95.08
2022-10-29T20:26:16.659Z,95.62
2022-10-29T20:28:34.859Z,95.90
2022-10-29T20:30:52.894Z,96.19
2022-10-29T20:33:11.968Z,96.08
2022-10-29T20:35:30.026Z,95.81
2022-10-29T20:37:47.036Z,95.55
2022-10-29T20:40:05.413Z,95.54
2022-10-29T20:42:22.357Z,94.36
2022-10-29T20:44:39.605Z,95.32
2022-10-29T20:46:56.786Z,95.34
2022-10-29T20:49:13.817Z,95.34
2022-10-29T20:51:30.742Z,95.74
2022-10-29T20:53:48.751Z,95.44
2022-10-29T20:56:05.727Z,95.19
2022-10-29T20:58:23.035Z,94.47
2022-10-29T21:00:41.274Z,95.61
2022-10-29T21:02:58.623Z,95.25
2022-10-29T21:05:16.569Z,94.87
2022-10-29T21:07:33.475Z,94.83
2022-10-29T21:09:50.404Z,94.48
2022-10-29T21:12:07.389Z,95.15
2022-10-29T21:14:24.674Z,94.66
2022-10-29T21:16:41.669Z,95.54
2022-10-29T21:18:58.743Z,95.22
2022-10-29T21:21:15.903Z,95.96
2022-10-29T21:23:33.172Z,94.84
2022-10-29T21:25:50.120Z,95.67
2022-10-29T21:28:07.028Z,95.73
2022-10-29T21:30:24.265Z,95.77
2022-10-29T21:32:41.270Z,95.11
2022-10-29T21:34:58.298Z,96.04
2022-10-29T21:37:15.231Z,94.89
2022-10-29T21:39:32.577Z,95.05
2022-10-29T21:41:49.704Z,96.02
2022-10-29T21:44:07.960Z,96.07
2022-10-29T21:46:25.885Z,95.64
2022-10-29T21:48:42.846Z,95.17
2022-10-29T21:50:59.764Z,95.80
2022-10-29T21:53:16.820Z,95.18
2022-10-29T21:55:33.872Z,95.33
2022-10-29T21:57:50.877Z,95.85
2022-10-29T22:00:07.897Z,95.98
2022-10-29T22:02:24.959Z,95.95
2022-10-29T22:04:42.265Z,95.29
2022-10-29T22:06:59.232Z,95.08
2022-10-29T22:09:16.151Z,94.99
2022-10-29T22:11:33.190Z,95.93
2022-10-29T22:13:50.446Z,95.72
2022-10-29T22:16:07.407Z,95.42
2022-10-29T22:18:24.598Z,95.64
2022-10-29T22:20:42.911Z,95.36
2022-10-29T22:23:00.180Z,95.15
2022-10-29T22:25:17.713Z,95.20
2022-10-29T22:27:34.792Z,95.80
2022-10-29T22:29:54.340Z,95.47
2022-10-29T22:32:11.689Z,95.84
2022-10-29T22:34:28.699Z,95.30
2022-10-29T22:36:45.964Z,95.99
2022-10-29T22:39:03.231Z,95.03
2022-10-29T22:41:20.264Z,94.79
2022-10-29T22:43:38.325Z,95.59
2022-10-29T22:45:58.715Z,95.52
2022-10-29T22:48:15.595Z,95.74
2022-10-29T22:50:32.590Z,95.38
2022-10-29T22:52:49.612Z,96.14
2022-10-29T22:55:06.646Z,96.02
2022-10-29T22:57:24.712Z,96.11
2022-10-29T22:59:41.964Z,95.34
2022-10-29T23:01:59.321Z,96.00
2022-10-29T23:04:17.599Z,95.77
2022-10-29T23:06:34.824Z,95.30
2022-10-29T23:08:52.069Z,95.85
2022-10-29T23:11:09.223Z,96.19
2022-10-29T23:13:26.129Z,94.62
2022-10-29T23:15:44.626Z,95.80
2022-10-29T23:18:01.897Z,95.90
2022-10-29T23:20:18.905Z,95.79
2022-10-29T23:22:36.012Z,95.37
2022-10-29T23:24:53.072Z,96.36
2022-10-29T23:27:10.047Z,96.26
2022-10-29T23:29:27.349Z,96.57
2022-10-29T23:31:44.672Z,96.61
2022-10-29T23:34:01.612Z,96.42
2022-10-29T23:36:18.650Z,95.89
2022-10-29T23:38:36.686Z,96.45
2022-10-29T23:40:54.906Z,96.43
2022-10-29T23:43:11.969Z,96.78
2022-10-29T23:45:29.224Z,96.78
2022-10-29T23:47:46.434Z,96.03
2022-10-29T23:50:03.472Z,96.63
2022-10-29T23:52:20.825Z,97.07
2022-10-29T23:54:37.812Z,96.13
2022-10-29T23:56:55.041Z,96.60
2022-10-29T23:59:13.416Z,96.54
